Time;durP1;ratioP1;P1;durP2;ratioP2;P2;SDS_P1;SDS_P2;PMS_P1;PMS_P2;Temp;Humidity;BMP_temperature;BMP_pressure;BME280_temperature;BME280_humidity;BME280_pressure;Samples;Min_cycle;Max_cycle;Signal;HPM_P1;HPM_P2
2022/07/28 00:01:51;;;;;;;17.30;15.40;;;;;;;22.84;75.35;99212.84;4901379;29;20028;-53
2022/07/28 00:04:16;;;;;;;16.40;14.75;;;;;;;22.75;75.57;99216.22;4907513;29;20064;-53
2022/07/28 00:06:42;;;;;;;17.73;16.08;;;;;;;22.86;75.78;99225.91;4907163;29;20033;-53
2022/07/28 00:09:08;;;;;;;17.48;15.65;;;;;;;22.74;75.88;99222.47;4906900;29;20029;-53
2022/07/28 00:11:33;;;;;;;17.02;15.27;;;;;;;22.79;75.41;99208.88;4907091;29;20054;-53
2022/07/28 00:13:59;;;;;;;15.82;14.05;;;;;;;22.91;75.27;99219.31;4907223;29;20084;-54
2022/07/28 00:16:24;;;;;;;17.25;15.45;;;;;;;22.98;75.53;99221.47;4907489;29;20028;-54
2022/07/28 00:18:50;;;;;;;16.33;14.70;;;;;;;22.92;75.39;99222.81;4906687;29;20335;-54
2022/07/28 00:21:16;;;;;;;16.92;15.32;;;;;;;22.79;75.71;99230.88;4906447;29;20324;-54
2022/07/28 00:23:42;;;;;;;19.17;14.52;;;;;;;22.79;75.52;99230.88;4907257;29;20089;-53
2022/07/28 00:26:08;;;;;;;16.60;15.10;;;;;;;22.78;75.98;99231.81;4906834;29;20044;-53
2022/07/28 00:28:35;;;;;;;18.65;16.75;;;;;;;22.71;76.23;99222.72;4907098;29;20144;-53
2022/07/28 00:31:00;;;;;;;20.50;15.18;;;;;;;22.80;75.62;99221.97;4907183;29;20024;-57
2022/07/28 00:33:26;;;;;;;17.20;15.27;;;;;;;22.88;75.64;99224.84;4906471;29;20072;-54
2022/07/28 00:35:52;;;;;;;17.95;16.10;;;;;;;22.87;75.45;99217.91;4907078;29;20025;-54
2022/07/28 00:38:17;;;;;;;16.02;14.52;;;;;;;22.90;75.28;99219.44;4906220;29;20032;-54
2022/07/28 00:43:27;;;;;;;17.67;15.90;;;;;;;22.66;76.04;99220.44;4906998;29;20056;-54
2022/07/28 00:45:52;;;;;;;18.00;16.17;;;;;;;22.51;76.34;99216.38;4909875;29;20092;-54
2022/07/28 00:48:18;;;;;;;17.55;15.90;;;;;;;22.60;76.43;99220.91;4906551;29;20359;-53
2022/07/28 00:50:44;;;;;;;17.25;15.70;;;;;;;22.53;76.48;99211.81;4906775;29;20037;-53
2022/07/28 00:53:10;;;;;;;17.38;15.75;;;;;;;22.68;76.00;99209.78;4906212;29;20036;-54
2022/07/28 00:55:37;;;;;;;19.15;17.15;;;;;;;22.37;76.23;99169.97;4906983;29;20059;-54
2022/07/28 00:58:03;;;;;;;19.25;17.25;;;;;;;22.46;76.76;99203.56;4906442;29;20063;-53
2022/07/28 01:00:28;;;;;;;18.25;15.98;;;;;;;22.50;76.43;99207.63;4905895;29;20344;-53
2022/07/28 01:02:54;;;;;;;18.63;16.50;;;;;;;22.66;76.20;99209.03;4906220;29;20060;-53
2022/07/28 01:05:20;;;;;;;17.83;16.02;;;;;;;22.75;76.63;99210.94;4906728;29;20032;-53
2022/07/28 01:08:08;;;;;;;17.05;15.45;;;;;;;22.48;76.13;99159.41;4907912;29;20051;-53
2022/07/28 01:10:49;;;;;;;16.17;14.65;;;;;;;22.75;76.72;99208.31;4910008;29;20034;-53
2022/07/28 01:13:35;;;;;;;;;;;;;;;22.79;76.55;99204.47;4893937;29;20040;-53
2022/07/28 01:16:03;;;;;;;16.65;15.05;;;;;;;22.74;76.92;99206.63;4909354;29;20194;-54
2022/07/28 01:18:35;;;;;;;16.65;14.93;;;;;;;22.74;77.04;99204.00;4909553;29;20033;-53
2022/07/28 01:21:10;;;;;;;17.80;15.88;;;;;;;22.79;76.89;99208.88;4908746;29;20035;-54
2022/07/28 01:24:16;;;;;;;17.25;15.43;;;;;;;22.44;77.44;99159.78;4909726;29;20063;-54
2022/07/28 01:26:50;;;;;;;20.73;17.35;;;;;;;22.39;76.80;99160.13;4908764;29;20333;-54
2022/07/28 01:29:42;;;;;;;18.85;16.30;;;;;;;22.62;77.76;99189.13;4908127;29;20229;-53
2022/07/28 01:32:42;;;;;;;19.52;17.58;;;;;;;22.61;77.79;99205.94;4909424;29;20221;-54
2022/07/28 01:35:13;;;;;;;19.23;17.33;;;;;;;22.51;79.03;99206.66;4909566;29;20041;-53
2022/07/28 01:37:43;;;;;;;18.85;17.13;;;;;;;22.56;79.07;99207.13;4909740;29;20048;-53
2022/07/28 01:40:12;;;;;;;20.35;17.00;;;;;;;22.37;78.71;99178.69;4909575;29;20044;-53
2022/07/28 01:42:42;;;;;;;19.58;17.45;;;;;;;22.46;78.22;99193.00;4909750;29;20041;-53
2022/07/28 01:45:11;;;;;;;18.45;16.48;;;;;;;22.50;78.68;99217.34;4909362;29;20028;-54
2022/07/28 01:47:38;;;;;;;19.73;17.77;;;;;;;22.52;78.19;99213.63;4910850;29;20048;-54
2022/07/28 01:50:07;;;;;;;20.92;17.50;;;;;;;22.47;78.30;99215.75;4909411;29;20343;-53
2022/07/28 01:52:34;;;;;;;18.73;16.92;;;;;;;22.43;78.84;99198.50;4909149;29;20335;-53
2022/07/28 01:55:01;;;;;;;20.88;18.67;;;;;;;22.40;78.87;99204.88;4908926;29;20025;-53
2022/07/28 01:57:31;;;;;;;18.80;16.88;;;;;;;22.23;78.51;99165.72;4924060;29;20036;-53
2022/07/28 01:59:59;;;;;;;21.20;18.27;;;;;;;22.46;79.08;99216.75;4909250;29;20056;-53
2022/07/28 02:02:28;;;;;;;23.25;20.83;;;;;;;22.11;79.10;99161.44;4908907;29;20034;-53
2022/07/28 02:04:57;;;;;;;21.55;19.42;;;;;;;22.16;78.71;99159.25;4908980;29;20036;-53
2022/07/28 02:07:25;;;;;;;19.75;17.65;;;;;;;22.08;78.60;99135.31;4908666;29;20096;-53
2022/07/28 02:09:53;;;;;;;19.88;17.88;;;;;;;22.49;78.64;99198.03;4909318;29;20028;-53
2022/07/28 02:12:20;;;;;;;20.67;18.42;;;;;;;22.45;79.28;99199.22;4908828;29;20305;-53
2022/07/28 02:14:49;;;;;;;20.33;18.33;;;;;;;22.22;78.76;99149.06;4909209;29;20250;-57
2022/07/28 02:17:19;;;;;;;20.50;18.50;;;;;;;22.48;79.24;99198.16;4908922;29;20198;-54
2022/07/28 02:19:47;;;;;;;20.00;18.02;;;;;;;22.50;79.59;99194.44;4907529;29;20048;-54
2022/07/28 02:22:15;;;;;;;22.35;19.95;;;;;;;22.48;80.10;99206.06;4908322;29;20038;-54
2022/07/28 02:24:43;;;;;;;24.25;21.63;;;;;;;22.22;79.41;99166.72;4908953;29;20094;-53
2022/07/28 02:27:18;;;;;;;25.10;22.67;;;;;;;22.35;79.54;99185.09;4909113;29;20036;-54
2022/07/28 02:29:48;;;;;;;24.98;22.52;;;;;;;22.07;80.21;99145.00;4907429;29;20025;-53
2022/07/28 02:32:29;;;;;;;26.90;23.30;;;;;;;22.41;80.05;99195.97;4908789;29;20029;-54
2022/07/28 02:35:23;;;;;;;27.77;22.50;;;;;;;22.19;80.42;99164.28;4908133;29;20045;-54
2022/07/28 02:37:56;;;;;;;25.73;22.95;;;;;;;22.19;80.30;99156.38;4908358;29;20069;-54
2022/07/28 02:40:22;;;;;;;27.75;24.13;;;;;;;22.50;79.34;99189.16;4908507;29;20040;-54
2022/07/28 02:42:50;;;;;;;26.83;23.90;;;;;;;22.45;80.06;99201.03;4908426;29;20032;-54
2022/07/28 02:45:21;;;;;;;25.50;22.80;;;;;;;22.58;79.40;99197.28;4910663;29;20059;-54
2022/07/28 02:47:52;;;;;;;26.42;23.75;;;;;;;22.40;79.26;99156.53;4909348;29;20040;-54
2022/07/28 02:50:23;;;;;;;26.58;23.67;;;;;;;22.51;79.24;99155.69;4922756;29;20032;-54
2022/07/28 02:52:54;;;;;;;23.88;21.23;;;;;;;22.56;79.90;99164.06;4908515;29;20592;-53
2022/07/28 02:55:19;;;;;;;27.98;24.45;;;;;;;22.80;79.20;99203.47;4913479;29;20285;-53
2022/07/28 02:57:47;;;;;;;25.70;22.95;;;;;;;22.87;79.61;99194.13;4908117;29;20032;-54
2022/07/28 03:00:14;;;;;;;25.10;22.38;;;;;;;23.00;78.88;99195.75;4908540;29;20029;-54
2022/07/28 03:02:45;;;;;;;24.75;22.10;;;;;;;23.04;79.23;99187.47;4904132;29;20036;-54
2022/07/28 03:05:13;;;;;;;23.15;20.77;;;;;;;23.15;78.55;99202.47;4908311;29;20309;-54
2022/07/28 03:07:40;;;;;;;29.05;24.85;;;;;;;23.20;77.81;99195.03;4907785;29;20277;-54
2022/07/28 03:10:06;;;;;;;32.97;24.38;;;;;;;23.24;78.10;99211.44;4907981;29;20269;-54
2022/07/28 03:12:32;;;;;;;32.03;23.23;;;;;;;23.35;77.24;99206.13;4907816;29;20039;-54
2022/07/28 03:14:57;;;;;;;31.95;24.25;;;;;;;23.38;77.15;99205.84;4908039;29;20095;-54
2022/07/28 03:17:23;;;;;;;27.65;24.75;;;;;;;23.41;76.91;99202.97;4907434;29;20039;-54
2022/07/28 03:19:49;;;;;;;28.80;25.05;;;;;;;23.48;77.05;99210.41;4907632;29;20028;-54
2022/07/28 03:22:14;;;;;;;32.58;26.23;;;;;;;23.57;76.63;99217.56;4907879;29;20032;-54
2022/07/28 03:24:52;;;;;;;27.00;22.90;;;;;;;23.44;76.78;99167.50;4906794;29;20032;-54
2022/07/28 03:27:23;;;;;;;29.92;24.13;;;;;;;23.81;76.45;99213.81;4907169;29;20063;-53
2022/07/28 03:29:51;;;;;;;;;;;;;;;23.91;76.34;99205.03;4907963;29;20036;-54
2022/07/28 03:32:20;;;;;;;31.95;24.23;;;;;;;23.91;76.36;99214.75;4906740;29;19915;-54
2022/07/28 03:34:47;;;;;;;34.00;26.77;;;;;;;23.75;75.54;99186.91;4907756;29;20024;-53
2022/07/28 03:37:17;;;;;;;27.08;24.17;;;;;;;23.76;75.99;99191.25;4907809;29;20036;-54
2022/07/28 03:39:49;;;;;;;31.38;26.00;;;;;;;23.73;75.86;99164.25;4907125;29;20414;-54
2022/07/28 03:42:17;;;;;;;28.80;23.10;;;;;;;23.90;75.89;99176.88;4907433;29;20042;-53
2022/07/28 03:44:46;;;;;;;27.75;24.98;;;;;;;23.86;76.15;99177.25;4907606;29;20092;-54
2022/07/28 03:47:13;;;;;;;28.05;23.52;;;;;;;24.22;75.76;99220.91;4910489;29;20057;-54
2022/07/28 03:49:39;;;;;;;29.23;24.35;;;;;;;24.30;75.38;99223.72;4906828;29;20039;-53
2022/07/28 03:52:05;;;;;;;32.03;23.30;;;;;;;24.32;75.47;99204.25;4907137;29;20028;-53
2022/07/28 03:54:30;;;;;;;30.17;24.00;;;;;;;24.43;75.57;99217.38;4907441;29;20021;-53
2022/07/28 03:56:56;;;;;;;30.77;24.33;;;;;;;24.49;75.66;99219.50;4906876;29;20077;-58
2022/07/28 03:59:22;;;;;;;31.08;23.13;;;;;;;24.54;75.43;99224.38;4907488;29;20270;-53
2022/07/28 04:01:48;;;;;;;26.85;23.95;;;;;;;24.61;75.74;99220.25;4896734;29;20100;-53
2022/07/28 04:04:13;;;;;;;28.73;24.25;;;;;;;24.57;75.52;99208.22;4896945;29;20259;-54
2022/07/28 04:06:39;;;;;;;29.05;24.27;;;;;;;24.69;74.77;99222.25;4906958;29;20024;-53
2022/07/28 04:09:05;;;;;;;28.67;25.45;;;;;;;24.60;74.85;99226.53;4907625;29;20048;-54
2022/07/28 04:11:30;;;;;;;30.73;24.02;;;;;;;24.73;74.52;99229.78;4907396;29;20138;-54
2022/07/28 04:13:56;;;;;;;27.88;23.65;;;;;;;24.83;74.98;99227.16;4906928;29;20232;-54
2022/07/28 04:16:22;;;;;;;30.20;23.27;;;;;;;24.91;74.53;99222.03;4906401;29;20028;-54
2022/07/28 04:18:48;;;;;;;27.17;22.42;;;;;;;24.97;74.69;99224.13;4906597;29;20091;-54
2022/07/28 04:21:13;;;;;;;25.98;22.90;;;;;;;25.06;74.71;99218.97;4906915;29;20027;-54
2022/07/28 04:23:39;;;;;;;32.45;23.17;;;;;;;25.14;74.22;99227.91;4907188;29;20245;-54
2022/07/28 04:26:05;;;;;;;31.10;23.88;;;;;;;25.09;74.59;99208.09;4907068;29;20257;-53
2022/07/28 04:28:30;;;;;;;29.23;24.63;;;;;;;25.12;73.94;99218.41;4907198;29;20111;-53
2022/07/28 04:30:56;;;;;;;36.65;26.20;;;;;;;25.03;73.80;99211.31;4906571;29;20028;-54
2022/07/28 04:33:21;;;;;;;31.48;24.17;;;;;;;25.20;73.81;99217.72;4907053;29;20325;-54
2022/07/28 04:35:47;;;;;;;33.00;25.30;;;;;;;25.18;73.77;99224.97;4906563;29;20305;-54
2022/07/28 04:38:13;;;;;;;31.45;23.88;;;;;;;25.29;74.50;99217.72;4906482;29;20333;-54
2022/07/28 04:40:41;;;;;;;31.52;24.95;;;;;;;25.18;73.81;99207.25;4906577;29;20040;-54
2022/07/28 04:43:09;;;;;;;32.63;26.33;;;;;;;25.16;73.16;99209.22;4909486;29;20040;-54
2022/07/28 04:45:35;;;;;;;29.75;23.02;;;;;;;25.36;73.48;99217.22;4915021;29;20071;-53
2022/07/28 04:48:01;;;;;;;25.83;22.73;;;;;;;25.43;73.47;99215.69;4910603;29;20036;-54
2022/07/28 04:50:26;;;;;;;27.70;22.45;;;;;;;25.44;73.48;99212.03;4909588;29;20032;-54
2022/07/28 04:52:53;;;;;;;31.40;23.77;;;;;;;25.39;72.97;99220.41;4910156;29;20040;-53
2022/07/28 04:55:18;;;;;;;25.75;21.92;;;;;;;25.53;73.04;99220.97;4916426;29;20032;-53
2022/07/28 04:57:46;;;;;;;29.58;22.48;;;;;;;25.61;72.93;99224.59;4910216;29;20405;-53
2022/07/28 05:00:13;;;;;;;33.05;23.80;;;;;;;25.64;72.95;99223.47;4910043;29;20032;-53
2022/07/28 05:02:40;;;;;;;27.20;20.63;;;;;;;25.77;72.40;99228.50;4909903;29;20329;-54
2022/07/28 05:05:06;;;;;;;24.73;20.80;;;;;;;25.83;72.94;99231.38;4910430;29;20032;-54
2022/07/28 05:07:32;;;;;;;27.88;20.60;;;;;;;25.89;71.78;99227.31;4910117;29;20032;-54
2022/07/28 05:09:58;;;;;;;30.33;22.92;;;;;;;25.89;71.38;99229.97;4910029;29;20028;-53
2022/07/28 05:12:23;;;;;;;30.88;21.67;;;;;;;26.05;70.71;99225.94;4909987;29;20213;-53
2022/07/28 05:14:49;;;;;;;24.42;20.70;;;;;;;26.15;70.14;99230.25;4910136;29;20024;-54
2022/07/28 05:17:14;;;;;;;26.02;19.77;;;;;;;26.23;70.31;99224.19;4908032;29;20551;-54
2022/07/28 05:19:40;;;;;;;27.38;20.52;;;;;;;26.25;68.23;99230.22;4908727;29;20051;-54
2022/07/28 05:22:06;;;;;;;28.23;20.38;;;;;;;26.39;68.22;99234.19;4909893;29;20029;-54
2022/07/28 05:24:31;;;;;;;24.75;19.58;;;;;;;26.64;67.59;99229.22;4909880;29;20056;-54
2022/07/28 05:26:57;;;;;;;22.58;19.52;;;;;;;26.74;68.58;99234.50;4910051;29;20028;-54
2022/07/28 05:29:23;;;;;;;23.58;18.45;;;;;;;26.79;67.50;99241.03;4923469;29;20324;-54
2022/07/28 05:31:48;;;;;;;29.35;19.38;;;;;;;26.64;67.36;99240.66;4919005;29;20039;-54
2022/07/28 05:34:14;;;;;;;25.40;19.85;;;;;;;26.76;66.52;99235.19;4909525;29;20028;-54
2022/07/28 05:36:40;;;;;;;26.20;19.73;;;;;;;26.92;66.89;99238.03;4909659;29;20020;-55
2022/07/28 05:39:05;;;;;;;25.42;17.80;;;;;;;26.96;65.12;99234.06;4909542;29;20071;-54
2022/07/28 05:41:31;;;;;;;23.90;16.95;;;;;;;27.12;65.35;99220.13;4909551;29;20084;-54
2022/07/28 05:43:57;;;;;;;20.55;17.40;;;;;;;27.15;65.15;99232.28;4909466;29;20024;-54
2022/07/28 05:46:23;;;;;;;22.13;17.20;;;;;;;27.28;66.48;99226.56;4910398;29;20337;-54
2022/07/28 05:48:49;;;;;;;21.75;17.48;;;;;;;27.08;65.59;99228.53;4909134;29;20092;-55
2022/07/28 05:51:14;;;;;;;24.17;17.80;;;;;;;26.97;64.79;99226.94;4908499;29;20312;-54
2022/07/28 05:53:40;;;;;;;21.70;17.65;;;;;;;27.02;65.04;99229.97;4905803;29;20043;-54
2022/07/28 05:56:05;;;;;;;19.30;15.80;;;;;;;27.06;63.18;99218.06;4911566;29;20032;-55
2022/07/28 05:58:31;;;;;;;18.92;16.33;;;;;;;27.17;64.00;99232.97;4909168;29;20043;-55
2022/07/28 06:00:59;;;;;;;24.88;17.85;;;;;;;27.23;64.30;99234.19;4905396;29;20412;-55
2022/07/28 06:03:24;;;;;;;19.40;15.80;;;;;;;27.25;63.93;99234.84;4890765;29;20037;-55
2022/07/28 06:05:54;;;;;;;20.67;16.45;;;;;;;27.04;63.51;99198.78;4907368;29;20068;-55
2022/07/28 06:08:19;;;;;;;21.48;16.75;;;;;;;27.34;62.84;99234.81;4909315;29;20032;-54
2022/07/28 06:13:29;;;;;;;21.55;15.45;;;;;;;27.46;62.65;99242.56;4909044;29;20039;-54
2022/07/28 06:15:55;;;;;;;19.52;16.95;;;;;;;27.58;62.64;99235.19;4909140;29;20048;-55
2022/07/28 06:18:21;;;;;;;18.65;16.63;;;;;;;27.55;62.08;99231.84;4909182;29;20088;-54
2022/07/28 06:20:47;;;;;;;22.65;16.10;;;;;;;27.60;60.82;99233.22;4908806;29;20029;-55
2022/07/28 06:23:19;;;;;;;19.10;15.30;;;;;;;27.57;61.09;99236.19;4907914;29;20216;-54
2022/07/28 06:25:45;;;;;;;17.55;14.55;;;;;;;27.70;62.08;99234.78;4909059;29;20050;-54
2022/07/28 06:28:11;;;;;;;18.75;14.38;;;;;;;27.77;60.94;99239.50;4908532;29;20128;-54
2022/07/28 06:30:36;;;;;;;17.00;13.93;;;;;;;27.83;61.32;99244.19;4908895;29;20316;-55
2022/07/28 06:33:04;;;;;;;17.00;13.45;;;;;;;27.93;61.22;99241.44;4907511;29;20025;-55
2022/07/28 06:35:31;;;;;;;15.60;12.20;;;;;;;27.91;61.31;99236.28;4906603;29;20028;-55
2022/07/28 06:37:57;;;;;;;14.48;12.52;;;;;;;27.90;61.18;99239.91;4908434;29;20339;-54
2022/07/28 06:40:23;;;;;;;15.40;11.57;;;;;;;27.96;59.16;99226.00;4911296;29;20032;-54
2022/07/28 06:42:50;;;;;;;15.85;12.55;;;;;;;27.90;60.60;99227.47;4919772;29;20036;-54
2022/07/28 06:45:16;;;;;;;13.60;11.88;;;;;;;27.72;61.04;99224.84;4910565;29;20059;-55
2022/07/28 06:47:42;;;;;;;22.15;13.32;;;;;;;27.79;61.13;99235.69;4912011;29;20044;-54
2022/07/28 06:50:08;;;;;;;13.75;11.90;;;;;;;27.85;60.21;99231.59;4908214;29;20253;-54
2022/07/28 06:52:43;;;;;;;14.27;11.07;;;;;;;27.79;57.98;99230.38;4908081;29;20316;-53
2022/07/28 06:55:09;;;;;;;14.95;11.73;;;;;;;27.90;58.37;99229.28;4908382;29;20033;-53
2022/07/28 06:57:34;;;;;;;16.75;11.55;;;;;;;28.02;58.42;99228.06;4907378;29;20100;-53
2022/07/28 07:00:03;;;;;;;12.18;11.00;;;;;;;27.86;56.58;99235.91;4908203;29;20032;-54
2022/07/28 07:02:30;;;;;;;12.23;11.02;;;;;;;27.81;58.35;99227.56;4894560;29;20041;-53
2022/07/28 07:04:57;;;;;;;17.02;12.75;;;;;;;27.85;59.31;99221.75;4898748;29;20020;-54
2022/07/28 07:07:22;;;;;;;16.30;12.18;;;;;;;27.90;59.26;99227.47;4917404;29;20083;-54
2022/07/28 07:09:48;;;;;;;12.80;11.02;;;;;;;28.09;58.88;99233.59;4919282;29;20036;-54
2022/07/28 07:12:13;;;;;;;15.85;11.32;;;;;;;28.20;58.07;99229.81;4918644;29;20028;-54
2022/07/28 07:14:39;;;;;;;14.18;11.57;;;;;;;28.22;57.30;99234.00;4922676;29;20043;-53
2022/07/28 07:17:04;;;;;;;12.73;11.43;;;;;;;28.12;57.77;99235.09;4913387;29;20262;-53
2022/07/28 07:19:30;;;;;;;14.07;12.00;;;;;;;28.13;58.41;99234.09;4921324;29;20174;-53
2022/07/28 07:21:56;;;;;;;16.08;13.43;;;;;;;28.09;58.42;99227.44;4911282;29;20043;-53
2022/07/28 07:24:21;;;;;;;15.20;11.88;;;;;;;28.09;58.30;99233.59;4913243;29;20024;-55
2022/07/28 07:26:47;;;;;;;15.23;12.80;;;;;;;28.13;58.05;99234.09;4911796;29;20028;-57
2022/07/28 07:29:12;;;;;;;17.75;11.55;;;;;;;28.36;58.18;99232.59;4908377;29;20056;-54
2022/07/28 07:31:39;;;;;;;17.67;12.52;;;;;;;28.41;59.61;99227.59;4907217;29;20088;-54
2022/07/28 07:34:05;;;;;;;14.68;12.05;;;;;;;28.38;57.43;99230.59;4907097;29;20029;-54
2022/07/28 07:36:32;;;;;;;13.32;11.77;;;;;;;28.40;56.87;99225.09;4912083;29;20410;-53
2022/07/28 07:38:58;;;;;;;15.00;11.82;;;;;;;28.42;56.25;99228.44;4913712;29;20020;-54
2022/07/28 07:41:23;;;;;;;14.55;11.88;;;;;;;28.52;57.67;99223.81;4912336;29;20031;-55
2022/07/28 07:43:49;;;;;;;12.70;10.45;;;;;;;28.49;56.42;99231.28;4912747;29;20032;-55
2022/07/28 07:46:16;;;;;;;15.20;12.00;;;;;;;28.47;55.96;99238.63;4913145;29;20049;-54
2022/07/28 07:48:42;;;;;;;13.00;11.68;;;;;;;28.63;56.40;99224.56;4909845;29;20083;-54
2022/07/28 07:51:08;;;;;;;14.27;12.20;;;;;;;28.74;55.45;99232.25;4913888;29;20024;-54
2022/07/28 07:53:33;;;;;;;17.23;12.45;;;;;;;28.73;55.92;99214.59;4910308;29;20088;-54
2022/07/28 07:55:59;;;;;;;14.20;12.38;;;;;;;28.66;57.36;99225.09;4916891;29;20032;-54
2022/07/28 07:58:25;;;;;;;15.52;12.48;;;;;;;28.80;57.59;99228.13;4910606;29;20043;-54
2022/07/28 08:00:52;;;;;;;16.90;12.70;;;;;;;28.83;55.51;99222.44;4912157;29;20029;-53
2022/07/28 08:03:18;;;;;;;18.92;14.23;;;;;;;28.81;55.90;99222.63;4907178;29;20320;-54
2022/07/28 08:05:44;;;;;;;14.18;12.68;;;;;;;28.83;55.39;99220.63;4907154;29;20440;-55
2022/07/28 08:08:10;;;;;;;20.40;12.85;;;;;;;28.94;55.90;99222.16;4906236;29;20039;-53
2022/07/28 08:10:37;;;;;;;14.77;12.07;;;;;;;29.01;55.21;99233.81;4915583;29;20028;-53
2022/07/28 08:13:05;;;;;;;16.88;13.00;;;;;;;28.84;55.63;99190.28;4918166;29;20032;-54
2022/07/28 08:15:31;;;;;;;18.35;12.70;;;;;;;29.00;56.50;99213.53;4914935;29;20036;-54
2022/07/28 08:17:57;;;;;;;15.73;12.88;;;;;;;29.09;56.03;99215.19;4918552;29;20040;-54
2022/07/28 08:20:23;;;;;;;15.75;13.18;;;;;;;29.16;56.62;99209.19;4917600;29;20173;-54
2022/07/28 08:22:54;;;;;;;15.95;13.02;;;;;;;29.21;56.80;99212.19;4919914;29;20047;-54
2022/07/28 08:25:20;;;;;;;17.15;12.80;;;;;;;29.21;56.04;99191.69;4918510;29;20031;-54
2022/07/28 08:27:46;;;;;;;16.30;13.27;;;;;;;29.12;55.90;99183.84;4918599;29;20058;-54
2022/07/28 08:30:13;;;;;;;18.45;13.15;;;;;;;29.23;56.43;99184.41;4918270;29;20056;-53
2022/07/28 08:32:40;;;;;;;16.02;13.02;;;;;;;29.29;56.71;99177.56;4923087;29;20032;-54
2022/07/28 08:35:06;;;;;;;15.80;12.77;;;;;;;29.41;55.66;99180.72;4919469;29;20063;-54
2022/07/28 08:37:32;;;;;;;21.63;13.57;;;;;;;29.48;56.21;99164.88;4917400;29;20064;-54
2022/07/28 08:39:57;;;;;;;17.63;13.48;;;;;;;29.58;55.12;99168.19;4915514;29;20032;-54
2022/07/28 08:42:23;;;;;;;20.17;13.13;;;;;;;29.61;55.96;99155.34;4916903;29;20151;-54
2022/07/28 08:45:03;;;;;;;14.20;12.63;;;;;;;29.78;56.99;99155.31;4916707;29;20110;-54
2022/07/28 08:47:32;;;;;;;17.15;12.55;;;;;;;29.42;55.64;99124.50;4915308;29;20182;-54
2022/07/28 08:49:58;;;;;;;20.45;13.10;;;;;;;29.78;54.67;99142.78;4913922;29;20054;-55
2022/07/28 08:52:27;;;;;;;14.48;12.25;;;;;;;29.52;55.76;99107.50;4911017;29;20024;-54
2022/07/28 08:54:55;;;;;;;13.82;12.63;;;;;;;29.57;54.40;99102.47;4914801;29;20031;-54
2022/07/28 08:57:23;;;;;;;13.32;11.98;;;;;;;29.83;52.24;99149.47;4909826;29;20309;-55
2022/07/28 08:59:50;;;;;;;15.27;12.05;;;;;;;29.57;53.60;99092.66;4908209;29;20320;-54
2022/07/28 09:02:17;;;;;;;17.65;15.80;;;;;;;29.98;52.99;99139.78;4909657;29;20047;-53
2022/07/28 09:04:45;;;;;;;13.77;11.82;;;;;;;30.09;53.38;99142.06;4909734;29;20208;-53
2022/07/28 09:07:11;;;;;;;12.48;11.20;;;;;;;30.11;53.24;99153.44;4913983;29;20198;-53
2022/07/28 09:09:37;;;;;;;17.88;12.88;;;;;;;29.78;54.91;99156.13;4916909;29;20065;-53
2022/07/28 09:12:04;;;;;;;14.23;12.73;;;;;;;29.51;54.27;99164.53;4912817;29;20036;-57
2022/07/28 09:14:30;;;;;;;14.27;12.30;;;;;;;29.47;53.39;99163.22;4922124;29;20032;-54
2022/07/28 09:17:00;;;;;;;14.52;13.13;;;;;;;29.18;55.17;99159.19;4908928;29;20167;-53
2022/07/28 09:19:27;;;;;;;14.48;12.38;;;;;;;29.22;55.42;99161.34;4908877;29;20029;-53
2022/07/28 09:21:52;;;;;;;15.82;12.00;;;;;;;28.91;55.94;99169.16;4914693;29;20047;-54
2022/07/28 09:24:47;;;;;;;12.60;11.23;;;;;;;28.69;57.54;99178.59;4913383;29;20032;-54
2022/07/28 09:27:14;;;;;;;13.55;10.68;;;;;;;28.08;56.74;99138.72;4910505;29;20292;-53
2022/07/28 09:29:44;;;;;;;12.98;9.65;;;;;;;28.04;56.73;99143.53;4913069;29;20032;-53
2022/07/28 09:32:13;;;;;;;12.55;8.50;;;;;;;27.99;56.22;99151.19;4920341;29;20040;-53
2022/07/28 09:34:43;;;;;;;9.55;7.68;;;;;;;27.84;55.26;99203.28;4916484;29;20032;-54
2022/07/28 09:37:23;;;;;;;10.53;7.07;;;;;;;27.15;57.44;99208.34;4918581;29;20020;-54
2022/07/28 09:39:57;;;;;;;12.35;8.10;;;;;;;27.10;57.62;99197.34;4916886;29;20048;-54
2022/07/28 09:42:23;;;;;;;11.23;7.85;;;;;;;26.79;58.29;99208.31;4913087;29;20037;-53
2022/07/28 09:45:06;;;;;;;7.57;6.55;;;;;;;26.46;58.27;99191.97;4920370;29;20036;-53
2022/07/28 09:47:33;;;;;;;6.88;6.10;;;;;;;26.59;58.35;99186.31;4932041;29;20293;-53
2022/07/28 09:50:00;;;;;;;8.35;6.22;;;;;;;26.43;58.38;99179.81;4918442;29;20045;-53
2022/07/28 09:52:29;;;;;;;7.10;6.40;;;;;;;26.44;58.66;99183.31;4919658;29;20321;-53
2022/07/28 09:55:05;;;;;;;9.80;6.70;;;;;;;26.31;59.23;99144.66;4915395;29;20033;-53
2022/07/28 09:57:34;;;;;;;7.82;6.85;;;;;;;26.81;59.52;99171.81;4919031;29;20020;-52
2022/07/28 10:00:00;;;;;;;7.03;6.20;;;;;;;27.11;58.26;99170.59;4908807;29;20033;-53
2022/07/28 10:02:29;;;;;;;7.75;6.90;;;;;;;27.32;58.33;99154.34;4916452;29;20036;-53
2022/07/28 10:04:54;;;;;;;8.82;7.85;;;;;;;27.47;58.74;99173.25;4909643;29;20051;-53
2022/07/28 10:07:21;;;;;;;8.88;7.63;;;;;;;27.71;58.63;99167.28;4910611;29;20320;-54
2022/07/28 10:09:56;;;;;;;8.60;7.70;;;;;;;27.90;57.95;99170.72;4909122;29;20036;-54
2022/07/28 10:12:25;;;;;;;8.10;7.35;;;;;;;28.09;58.60;99179.50;4915985;29;20040;-54
2022/07/28 10:14:52;;;;;;;9.00;7.28;;;;;;;27.91;56.39;99177.72;4913956;29;20044;-54
2022/07/28 10:17:31;;;;;;;7.40;6.65;;;;;;;28.01;54.42;99185.63;4917975;29;20343;-54
2022/07/28 10:19:58;;;;;;;6.70;6.10;;;;;;;27.68;54.11;99145.47;4910755;29;20039;-54
2022/07/28 10:22:32;;;;;;;7.68;6.63;;;;;;;28.11;53.19;99173.03;4911802;29;20107;-54
2022/07/28 10:25:06;;;;;;;6.75;6.10;;;;;;;27.98;54.14;99140.66;4905171;29;20028;-54
2022/07/28 10:27:32;;;;;;;6.82;5.70;;;;;;;28.22;53.89;99170.09;4902941;29;20096;-53
2022/07/28 10:30:00;;;;;;;8.52;6.05;;;;;;;28.20;53.00;99137.44;4908259;29;20064;-54
2022/07/28 10:32:30;;;;;;;7.43;6.55;;;;;;;28.56;53.35;99166.56;4907634;29;20036;-53
2022/07/28 10:35:02;;;;;;;8.05;6.60;;;;;;;28.55;51.90;99122.25;4908117;29;20368;-53
2022/07/28 10:37:30;;;;;;;7.10;5.85;;;;;;;28.80;52.19;99164.13;4908082;29;20041;-53
2022/07/28 10:40:02;;;;;;;8.73;6.30;;;;;;;28.75;50.88;99176.13;4907293;29;20041;-53
2022/07/28 10:42:30;;;;;;;8.50;6.82;;;;;;;28.79;52.41;99165.97;4907325;29;20033;-53
2022/07/28 10:44:56;;;;;;;6.90;6.13;;;;;;;28.73;52.78;99162.13;4908290;29;20096;-53
2022/07/28 10:47:23;;;;;;;8.30;6.28;;;;;;;28.73;52.77;99172.78;4908529;29;20119;-52
2022/07/28 10:49:49;;;;;;;7.10;6.28;;;;;;;28.77;53.61;99175.94;4907845;29;20043;-53
2022/07/28 10:52:19;;;;;;;6.45;5.85;;;;;;;28.78;54.60;99171.47;4907542;29;20056;-53
2022/07/28 10:55:07;;;;;;;7.22;6.30;;;;;;;28.64;52.91;99157.75;4910937;29;20024;-53
2022/07/28 10:57:36;;;;;;;7.00;6.30;;;;;;;28.64;53.84;99160.44;4906900;29;20107;-53
2022/07/28 11:00:16;;;;;;;7.63;6.63;;;;;;;28.68;54.02;99172.44;4900847;29;20066;-54
2022/07/28 11:02:50;;;;;;;9.73;6.60;;;;;;;28.48;54.43;99173.69;4907575;29;20024;-54
2022/07/28 11:05:38;;;;;;;7.70;6.97;;;;;;;28.52;55.34;99175.03;4904405;29;20036;-53
2022/07/28 11:08:07;;;;;;;8.57;7.30;;;;;;;28.14;55.96;99154.06;4907141;29;20108;-53
2022/07/28 11:10:46;;;;;;;9.82;7.43;;;;;;;28.31;57.26;99202.91;4913056;29;20097;-53
2022/07/28 11:13:29;;;;;;;12.75;7.97;;;;;;;28.20;57.96;99166.72;4903928;29;20040;-52
2022/07/28 11:16:15;;;;;;;11.43;7.88;;;;;;;28.46;58.44;99196.97;4907923;29;20028;-53
2022/07/28 11:19:15;;;;;;;15.48;13.77;;;;;;;28.29;58.65;99199.59;4904932;29;20032;-53
2022/07/28 11:22:17;;;;;;;10.07;8.38;;;;;;;28.22;58.64;99187.91;4895799;29;20236;-52
2022/07/28 11:24:58;;;;;;;;;;;;;;;28.10;59.44;99186.50;4906621;29;20336;-53
2022/07/28 11:27:39;;;;;;;10.13;8.00;;;;;;;28.10;59.63;99189.16;4910239;29;20612;-54
2022/07/28 11:30:27;;;;;;;9.32;8.20;;;;;;;27.90;58.28;99205.31;4909693;29;20035;-54
2022/07/28 11:32:53;;;;;;;12.98;8.48;;;;;;;27.83;59.21;99222.91;4913545;29;20024;-53